Time;durP1;ratioP1;P1;durP2;ratioP2;P2;SDS_P1;SDS_P2;PMS_P1;PMS_P2;Temp;Humidity;BMP_temperature;BMP_pressure;BME280_temperature;BME280_humidity;BME280_pressure;Samples;Min_cycle;Max_cycle;Signal;HPM_P1;HPM_P2
2023/05/20 00:00:38;;;;;;;14.10;6.68;;;;;;;;;;6241642;23;20370;-82
2023/05/20 00:03:04;;;;;;;15.40;6.15;;;;;;;;;;6217457;23;20827;-81
2023/05/20 00:05:30;;;;;;;15.10;6.75;;;;;;;;;;6243766;22;20369;-81
2023/05/20 00:07:56;;;;;;;13.07;6.28;;;;;;;;;;6243421;23;20362;-80
2023/05/20 00:10:22;;;;;;;14.25;6.75;;;;;;;;;;6242340;23;20366;-81
2023/05/20 00:12:48;;;;;;;14.63;6.88;;;;;;;;;;6242549;23;20835;-80
2023/05/20 00:15:14;;;;;;;14.73;6.40;;;;;;;;;;6192116;23;20472;-79
2023/05/20 00:17:40;;;;;;;13.82;6.60;;;;;;;;;;6241250;23;20362;-81
2023/05/20 00:20:07;;;;;;;15.13;6.80;;;;;;;;;;6243385;23;20370;-81
2023/05/20 00:22:33;;;;;;;13.60;6.70;;;;;;;;;;6242789;23;20383;-80
2023/05/20 00:24:59;;;;;;;15.35;6.70;;;;;;;;;;6217622;23;20370;-80
2023/05/20 00:27:25;;;;;;;16.05;6.90;;;;;;;;;;6242061;23;20858;-81
2023/05/20 00:29:51;;;;;;;17.40;7.03;;;;;;;;;;6242753;23;20816;-81
2023/05/20 00:32:17;;;;;;;16.13;6.80;;;;;;;;;;6215379;23;20389;-81
2023/05/20 00:34:43;;;;;;;16.48;6.97;;;;;;;;;;6242012;23;20926;-80
2023/05/20 00:37:10;;;;;;;12.82;6.43;;;;;;;;;;6217144;23;20374;-80
2023/05/20 00:39:36;;;;;;;13.90;6.40;;;;;;;;;;6217417;23;20535;-80
2023/05/20 00:42:02;;;;;;;14.07;6.63;;;;;;;;;;6241999;23;20362;-79
2023/05/20 00:44:28;;;;;;;13.30;6.40;;;;;;;;;;6241885;23;20392;-80
2023/05/20 00:46:55;;;;;;;14.18;6.45;;;;;;;;;;6191132;23;20689;-80
2023/05/20 00:49:22;;;;;;;14.02;6.50;;;;;;;;;;6216949;23;20376;-80
2023/05/20 00:51:48;;;;;;;14.00;6.35;;;;;;;;;;6241926;23;20397;-80
2023/05/20 00:54:15;;;;;;;13.00;6.28;;;;;;;;;;6242133;23;20390;-80
2023/05/20 00:56:41;;;;;;;12.52;6.60;;;;;;;;;;6242869;23;20369;-80
2023/05/20 00:59:07;;;;;;;14.43;6.38;;;;;;;;;;6242344;23;20361;-80
2023/05/20 01:01:34;;;;;;;13.75;6.63;;;;;;;;;;6241288;23;20437;-80
2023/05/20 01:04:00;;;;;;;15.65;6.70;;;;;;;;;;6215778;23;20362;-80
2023/05/20 01:06:27;;;;;;;14.48;7.03;;;;;;;;;;6216978;23;20365;-80
2023/05/20 01:08:53;;;;;;;13.93;6.80;;;;;;;;;;6217799;23;20380;-80
2023/05/20 01:11:30;;;;;;;17.63;6.75;;;11.00;99.90;;;;;;6217199;23;20699;-79
2023/05/20 01:13:58;;;;;;;14.35;6.70;;;;;;;;;;6216218;23;20393;-80
2023/05/20 01:16:24;;;;;;;15.53;7.00;;;;;;;;;;6239206;23;20378;-80
2023/05/20 01:18:54;;;;;;;14.07;6.60;;;10.90;99.90;;;;;;6241377;23;20377;-79
2023/05/20 01:21:20;;;;;;;15.75;6.82;;;;;;;;;;6241334;23;20372;-79
2023/05/20 01:23:47;;;;;;;15.52;6.65;;;;;;;;;;6241356;23;20362;-80
2023/05/20 01:26:13;;;;;;;12.23;6.25;;;;;;;;;;6216239;23;20368;-78
2023/05/20 01:28:42;;;;;;;11.82;6.40;;;10.80;99.90;;;;;;6241717;23;20370;-79
2023/05/20 01:31:12;;;;;;;17.27;7.22;;;;;;;;;;6216113;23;20381;-79
2023/05/20 01:33:40;;;;;;;12.00;6.63;;;;;;;;;;6216405;23;20397;-79
2023/05/20 01:36:06;;;;;;;14.03;7.30;;;;;;;;;;6241122;23;20366;-80
2023/05/20 01:38:33;;;;;;;14.70;6.93;;;;;;;;;;6241528;23;20673;-78
2023/05/20 01:41:01;;;;;;;14.90;6.90;;;10.60;99.90;;;;;;6241556;23;20366;-79
2023/05/20 01:43:27;;;;;;;13.68;7.25;;;;;;;;;;6242708;23;20373;-80
2023/05/20 01:45:53;;;;;;;13.40;6.75;;;;;;;;;;6242328;23;20436;-80
2023/05/20 01:48:19;;;;;;;11.25;6.60;;;;;;;;;;6242557;23;20372;-80
2023/05/20 01:50:46;;;;;;;12.82;6.80;;;;;;;;;;6243267;23;20496;-81
2023/05/20 01:53:12;;;;;;;15.03;7.40;;;;;;;;;;6242839;23;20769;-80
2023/05/20 01:55:38;;;;;;;12.35;7.25;;;;;;;;;;6193021;23;20389;-79
2023/05/20 01:58:04;;;;;;;13.25;6.85;;;;;;;;;;6218320;23;20375;-79
2023/05/20 02:00:33;;;;;;;16.17;6.97;;;;;;;;;;6243181;23;20373;-79
2023/05/20 02:03:00;;;;;;;14.68;6.93;;;;;;;;;;6243575;23;20366;-79
2023/05/20 02:05:26;;;;;;;13.63;7.20;;;;;;;;;;6242199;23;20858;-78
2023/05/20 02:07:52;;;;;;;15.85;7.30;;;;;;;;;;6242712;23;20366;-79
2023/05/20 02:10:18;;;;;;;13.50;7.15;;;;;;;;;;6217599;23;20416;-79
2023/05/20 02:12:46;;;;;;;14.15;7.32;;;;;;;;;;6218484;23;20850;-79
2023/05/20 02:15:12;;;;;;;17.00;7.25;;;;;;;;;;6241414;23;20394;-79
2023/05/20 02:17:39;;;;;;;12.27;7.10;;;;;;;;;;6242631;23;20362;-78
2023/05/20 02:20:06;;;;;;;14.98;7.45;;;10.20;99.90;;;;;;6242350;23;20755;-79
2023/05/20 02:22:32;;;;;;;16.20;6.75;;;;;;;;;;6242533;23;20358;-78
2023/05/20 02:24:58;;;;;;;13.77;6.70;;;;;;;;;;6241721;23;20366;-79
2023/05/20 02:27:24;;;;;;;13.27;7.38;;;;;;;;;;6193164;23;20844;-79
2023/05/20 02:29:50;;;;;;;12.98;7.00;;;;;;;;;;6217262;23;20405;-78
2023/05/20 02:32:17;;;;;;;11.93;6.97;;;;;;;;;;6217400;23;20369;-79
2023/05/20 02:34:43;;;;;;;13.40;7.03;;;;;;;;;;6242700;23;20386;-80
2023/05/20 02:37:09;;;;;;;14.68;7.05;;;;;;;;;;6217792;23;20358;-79
2023/05/20 02:39:35;;;;;;;11.57;6.47;;;;;;;;;;6243163;23;20868;-79
2023/05/20 02:42:01;;;;;;;12.25;6.55;;;;;;;;;;6243359;23;20828;-79
2023/05/20 02:44:27;;;;;;;14.35;7.47;;;;;;;;;;6243075;23;20504;-79
2023/05/20 02:46:53;;;;;;;13.30;7.43;;;;;;;;;;6242963;23;20372;-79
2023/05/20 02:49:19;;;;;;;13.80;7.03;;;;;;;;;;6217826;23;20524;-78
2023/05/20 02:51:45;;;;;;;14.20;7.15;;;;;;;;;;6241700;23;20839;-78
2023/05/20 02:54:11;;;;;;;15.50;7.13;;;;;;;;;;6193080;23;20390;-78
2023/05/20 02:56:38;;;;;;;13.90;7.38;;;;;;;;;;6242732;23;20373;-79
2023/05/20 02:59:05;;;;;;;12.52;7.30;;;;;;;;;;6216995;23;20365;-80
2023/05/20 03:01:32;;;;;;;12.93;6.68;;;;;;;;;;6243567;23;20754;-79
2023/05/20 03:03:58;;;;;;;12.85;7.00;;;;;;;;;;6242685;23;20370;-80
2023/05/20 03:06:25;;;;;;;10.02;6.38;;;;;;;;;;6243169;23;20688;-80
2023/05/20 03:08:51;;;;;;;11.35;6.07;;;;;;;;;;6242909;23;20372;-80
2023/05/20 03:11:17;;;;;;;12.80;6.25;;;;;;;;;;6245375;23;20696;-79
2023/05/20 03:13:43;;;;;;;10.95;5.97;;;;;;;;;;6242881;23;20500;-79
2023/05/20 03:16:11;;;;;;;10.75;6.45;;;;;;;;;;6218327;23;20377;-80
2023/05/20 03:18:37;;;;;;;12.43;6.28;;;;;;;;;;6243215;23;20448;-80
2023/05/20 03:21:04;;;;;;;13.93;6.70;;;;;;;;;;6217534;23;20369;-79
2023/05/20 03:23:30;;;;;;;13.77;7.07;;;;;;;;;;6243469;23;20368;-80
2023/05/20 03:25:56;;;;;;;13.68;6.53;;;;;;;;;;6242717;23;20370;-80
2023/05/20 03:28:22;;;;;;;12.57;6.73;;;;;;;;;;6243189;23;20370;-80
2023/05/20 03:30:48;;;;;;;12.10;6.78;;;;;;;;;;6243622;23;20370;-80
2023/05/20 03:33:14;;;;;;;10.80;6.57;;;;;;;;;;6242958;23;20441;-80
2023/05/20 03:35:40;;;;;;;12.27;6.55;;;;;;;;;;6217609;23;20386;-80
2023/05/20 03:38:06;;;;;;;11.18;6.43;;;;;;;;;;6242427;23;20744;-79
2023/05/20 03:40:33;;;;;;;11.30;6.40;;;;;;;;;;6240348;23;20362;-79
2023/05/20 03:42:59;;;;;;;14.38;6.32;;;;;;;;;;6242077;23;20370;-79
2023/05/20 03:45:25;;;;;;;11.98;6.47;;;;;;;;;;6240638;23;20740;-78
2023/05/20 03:47:51;;;;;;;12.30;6.40;;;;;;;;;;6217042;23;20661;-79
2023/05/20 03:50:17;;;;;;;12.98;6.22;;;;;;;;;;6241539;23;20752;-80
2023/05/20 03:52:43;;;;;;;11.40;6.03;;;;;;;;;;6242588;23;20863;-80
2023/05/20 03:55:09;;;;;;;12.00;6.00;;;;;;;;;;6241611;23;20464;-79
2023/05/20 03:57:36;;;;;;;12.30;5.88;;;;;;;;;;6242847;23;20372;-79
2023/05/20 04:00:08;;;;;;;14.15;6.35;;;;;;;;;;6241682;23;20641;-79
2023/05/20 04:02:34;;;;;;;9.82;6.15;;;;;;;;;;6241359;23;20389;-81
2023/05/20 04:05:01;;;;;;;11.38;5.78;;;;;;;;;;6241444;23;20370;-79
2023/05/20 04:07:28;;;;;;;8.95;5.45;;;;;;;;;;6217680;23;20404;-80
2023/05/20 04:09:54;;;;;;;9.63;5.13;;;;;;;;;;6215749;23;20370;-80
2023/05/20 04:12:21;;;;;;;10.35;5.13;;;;;;;;;;6243281;23;20377;-78
2023/05/20 04:14:48;;;;;;;9.03;5.10;;;;;;;;;;6191542;23;20394;-80
2023/05/20 04:17:15;;;;;;;10.13;5.35;;;;;;;;;;6242755;23;20379;-80
2023/05/20 04:19:41;;;;;;;11.23;5.30;;;;;;;;;;6240882;23;20381;-80
2023/05/20 04:22:07;;;;;;;10.23;5.07;;;;;;;;;;6242091;23;20393;-80
2023/05/20 04:24:33;;;;;;;9.07;5.00;;;;;;;;;;6242578;23;20424;-79
2023/05/20 04:27:00;;;;;;;8.52;4.90;;;;;;;;;;6243452;23;20444;-80
2023/05/20 04:29:27;;;;;;;9.00;4.60;;;;;;;;;;6242120;23;20370;-80
2023/05/20 04:31:53;;;;;;;10.30;4.90;;;;;;;;;;6217103;23;20419;-80
2023/05/20 04:34:25;;;;;;;8.55;4.80;;;;;;;;;;6242281;23;20385;-80
2023/05/20 04:36:51;;;;;;;9.65;4.20;;;;;;;;;;6243131;23;20366;-80
2023/05/20 04:39:19;;;;;;;7.00;4.73;;;;;;;;;;6241464;23;20454;-79
2023/05/20 04:41:47;;;;;;;7.50;4.20;;;;;;;;;;6242741;23;20368;-78
2023/05/20 04:44:13;;;;;;;7.20;4.10;;;;;;;;;;6216817;23;20450;-80
2023/05/20 04:46:40;;;;;;;7.00;4.20;;;;;;;;;;6242057;23;20459;-79
2023/05/20 04:49:06;;;;;;;9.25;4.15;;;;;;;;;;6240780;23;20840;-80
2023/05/20 04:51:34;;;;;;;7.07;4.00;;;;;;;;;;6240527;23;20878;-79
2023/05/20 04:54:00;;;;;;;9.77;4.38;;;;;;;;;;6241866;23;20374;-79
2023/05/20 04:56:26;;;;;;;7.03;3.92;;;;;;;;;;6241599;23;20404;-80
2023/05/20 04:58:53;;;;;;;6.82;3.50;;;;;;;;;;6241616;23;21164;-80
2023/05/20 05:01:19;;;;;;;9.52;3.53;;;;;;;;;;6243066;23;20385;-80
2023/05/20 05:03:45;;;;;;;5.50;3.40;;;;;;;;;;6240752;23;20373;-80
2023/05/20 05:06:11;;;;;;;6.43;3.10;;;;;;;;;;6240249;23;20851;-79
2023/05/20 05:08:37;;;;;;;6.55;3.55;;;;;;;;;;6238971;23;20859;-82
2023/05/20 05:11:05;;;;;;;6.65;3.10;;;;;;;;;;6242166;23;20515;-81
2023/05/20 05:13:31;;;;;;;5.80;3.30;;;;;;;;;;6215422;23;20485;-81
2023/05/20 05:15:58;;;;;;;9.50;3.30;;;;;;;;;;6241147;23;20389;-82
2023/05/20 05:18:24;;;;;;;7.55;3.08;;;;;;;;;;6240687;23;20381;-82
2023/05/20 05:20:58;;;;;;;6.45;3.20;;;;;;;;;;6242845;23;20376;-82
2023/05/20 05:23:24;;;;;;;7.05;3.00;;;;;;;;;;6241807;23;20696;-81
2023/05/20 05:25:53;;;;;;;6.53;3.13;;;;;;;;;;6218896;23;20828;-83
2023/05/20 05:28:19;;;;;;;5.30;3.00;;;;;;;;;;6245094;23;20366;-80
2023/05/20 05:30:46;;;;;;;6.35;2.53;;;;;;;;;;6243592;23;20420;-80
2023/05/20 05:33:15;;;;;;;5.95;2.50;;;;;;;;;;6245605;23;20437;-82
2023/05/20 05:35:42;;;;;;;4.83;2.27;;;;;;;;;;6243782;23;20390;-79
2023/05/20 05:38:08;;;;;;;8.55;2.47;;;;;;;;;;6218487;23;20369;-80
2023/05/20 05:40:35;;;;;;;6.28;2.67;;;;;;;;;;6215746;23;20896;-80
2023/05/20 05:43:01;;;;;;;5.10;2.47;;;;;;;;;;6190568;23;20362;-78
2023/05/20 05:45:27;;;;;;;5.90;2.20;;;;;;;;;;6239819;23;20374;-78
2023/05/20 05:47:53;;;;;;;4.35;2.28;;;;;;;;;;6243195;23;20369;-78
2023/05/20 05:50:20;;;;;;;5.20;2.20;;;;;;;;;;6239957;23;20362;-78
2023/05/20 05:52:46;;;;;;;4.90;2.10;;;;;;;;;;6243647;23;20419;-79
2023/05/20 05:55:12;;;;;;;4.97;2.00;;;;;;;;;;6217293;23;20393;-79
2023/05/20 05:57:38;;;;;;;2.80;1.75;;;;;;;;;;6217079;23;20894;-78
2023/05/20 06:00:04;;;;;;;4.45;1.95;;;;;;;;;;6242884;23;20485;-79
2023/05/20 06:02:34;;;;;;;4.33;2.03;;;;;;;;;;6215586;23;20450;-77
2023/05/20 06:05:01;;;;;;;3.97;1.80;;;;;;;;;;6242743;23;20400;-79
2023/05/20 06:07:28;;;;;;;3.97;1.85;;;;;;;;;;6242461;23;20696;-79
2023/05/20 06:09:54;;;;;;;5.40;1.92;;;;;;;;;;6243800;23;20377;-79
2023/05/20 06:12:20;;;;;;;2.60;1.70;;;;;;;;;;6241854;23;20832;-80
2023/05/20 06:14:46;;;;;;;4.22;1.80;;;;;;;;;;6214455;23;20396;-78
2023/05/20 06:17:12;;;;;;;3.17;1.80;;;;;;;;;;6238821;23;20394;-80
2023/05/20 06:19:39;;;;;;;3.17;1.85;;;;;;;;;;6244305;23;20376;-80
2023/05/20 06:22:05;;;;;;;3.53;2.03;;;;;;;;;;6216459;23;20488;-80
2023/05/20 06:24:31;;;;;;;4.43;1.80;;;;;;;;;;6240204;23;20373;-79
2023/05/20 06:26:57;;;;;;;3.85;1.90;;;;;;;;;;6242795;23;20456;-79
2023/05/20 06:29:23;;;;;;;6.93;2.00;;;;;;;;;;6193052;23;20378;-79
2023/05/20 06:31:49;;;;;;;6.78;1.90;;;;;;;;;;6242309;23;20401;-80
2023/05/20 06:34:15;;;;;;;3.97;1.85;;;;;;;;;;6243655;23;20386;-79
2023/05/20 06:36:41;;;;;;;4.60;1.80;;;;;;;;;;6217688;23;20401;-80
2023/05/20 06:39:11;;;;;;;4.10;1.70;;;;;;;;;;6244173;23;20551;-78
2023/05/20 06:41:40;;;;;;;8.00;2.05;;;;;;;;;;6242792;23;20366;-80
2023/05/20 06:44:06;;;;;;;7.10;1.60;;;;;;;;;;6241919;23;20376;-80
2023/05/20 06:46:33;;;;;;;4.97;1.90;;;;;;;;;;6240644;23;20695;-80
2023/05/20 06:48:59;;;;;;;5.03;1.70;;;;;;;;;;6241547;23;20430;-84
2023/05/20 06:51:26;;;;;;;5.07;1.70;;;;;;;;;;6239957;23;20368;-80
2023/05/20 06:53:52;;;;;;;2.70;1.50;;;;;;;;;;6214508;23;20374;-79
2023/05/20 06:56:20;;;;;;;3.78;1.50;;;;;;;;;;6215247;23;20362;-78
2023/05/20 06:58:46;;;;;;;5.28;1.70;;;;;;;;;;6240499;23;20878;-80
2023/05/20 07:01:12;;;;;;;3.42;1.40;;;;;;;;;;6240459;23;20358;-80
2023/05/20 07:03:38;;;;;;;4.47;1.60;;;;;;;;;;6213243;23;20860;-79
2023/05/20 07:06:04;;;;;;;3.95;1.67;;;;;;;;;;6236899;23;20373;-79
2023/05/20 07:08:30;;;;;;;6.03;1.60;;;;;;;;;;6239385;23;20870;-81
2023/05/20 07:10:56;;;;;;;3.72;1.63;;;14.80;99.90;;;;;;6239324;23;20366;-82
2023/05/20 07:13:22;;;;;;;4.20;1.50;;;;;;;;;;6214602;23;20716;-82
2023/05/20 07:15:49;;;;;;;3.67;1.50;;;;;;;;;;6213169;23;20420;-82
2023/05/20 07:18:15;;;;;;;3.83;1.50;;;;;;;;;;6214043;23;20449;-82
2023/05/20 07:20:41;;;;;;;2.88;1.42;;;;;;;;;;6212872;23;20389;-81
2023/05/20 07:23:07;;;;;;;3.00;1.52;;;;;;;;;;6240082;23;20445;-81
2023/05/20 07:25:33;;;;;;;3.03;1.50;;;;;;;;;;6241176;23;20376;-82
2023/05/20 07:27:59;;;;;;;3.58;1.50;;;;;;;;;;6242338;23;20366;-81
2023/05/20 07:30:26;;;;;;;4.22;1.70;;;15.70;99.90;;;;;;6242311;23;20365;-81
2023/05/20 07:32:52;;;;;;;3.47;1.60;;;;;;;;;;6217562;23;20365;-81
2023/05/20 07:35:19;;;;;;;4.40;1.60;;;;;;;;;;6242115;23;20393;-81
2023/05/20 07:37:45;;;;;;;4.53;1.63;;;;;;;;;;6242085;23;20689;-81
2023/05/20 07:40:11;;;;;;;3.67;1.70;;;;;;;;;;6241985;23;20370;-82
2023/05/20 07:42:37;;;;;;;6.55;1.80;;;;;;;;;;6215590;23;20362;-81
2023/05/20 07:45:03;;;;;;;4.28;1.70;;;;;;;;;;6214765;23;20485;-81
2023/05/20 07:47:31;;;;;;;4.10;1.70;;;16.60;99.90;;;;;;6241367;23;20467;-82
2023/05/20 07:49:57;;;;;;;4.75;1.60;;;;;;;;;;6216686;23;20366;-82
2023/05/20 07:52:23;;;;;;;2.90;1.73;;;;;;;;;;6216034;23;20366;-82
2023/05/20 07:54:49;;;;;;;3.97;1.80;;;;;;;;;;6216079;23;20386;-81
2023/05/20 07:57:15;;;;;;;4.80;1.67;;;;;;;;;;6239897;23;20393;-82
2023/05/20 07:59:42;;;;;;;4.82;1.60;;;;;;;;;;6215700;23;20389;-82
2023/05/20 08:02:08;;;;;;;4.50;1.70;;;;;;;;;;6214892;23;20742;-82
2023/05/20 08:04:34;;;;;;;4.47;1.60;;;;;;;;;;6216859;23;20445;-81
2023/05/20 08:07:01;;;;;;;4.22;1.65;;;;;;;;;;6241632;23;20842;-81
2023/05/20 08:09:27;;;;;;;4.93;1.80;;;;;;;;;;6216012;23;20370;-81
2023/05/20 08:11:53;;;;;;;4.20;1.87;;;;;;;;;;6241386;23;20704;-81
2023/05/20 08:14:19;;;;;;;6.32;1.67;;;;;;;;;;6191716;23;20390;-81
2023/05/20 08:16:45;;;;;;;5.38;1.90;;;;;;;;;;6217524;23;20393;-82
2023/05/20 08:19:11;;;;;;;3.85;1.60;;;;;;;;;;6242639;23;20901;-81
2023/05/20 08:21:38;;;;;;;5.65;1.80;;;;;;;;;;6242349;23;20373;-81
2023/05/20 08:24:04;;;;;;;7.22;1.88;;;;;;;;;;6242934;23;20366;-82
2023/05/20 08:26:30;;;;;;;3.63;1.60;;;;;;;;;;6215692;23;20362;-81
2023/05/20 08:28:56;;;;;;;4.40;1.60;;;;;;;;;;6239217;23;20365;-81
2023/05/20 08:31:22;;;;;;;4.00;1.77;;;;;;;;;;6241534;23;20416;-81
2023/05/20 08:33:48;;;;;;;4.43;1.70;;;17.80;99.90;;;;;;6217259;23;20372;-81
2023/05/20 08:36:15;;;;;;;6.68;1.80;;;;;;;;;;6216998;23;20488;-82
2023/05/20 08:38:41;;;;;;;6.65;2.63;;;;;;;;;;6216275;23;20901;-81
2023/05/20 08:41:07;;;;;;;4.47;1.80;;;;;;;;;;6217371;23;20401;-82
2023/05/20 08:43:33;;;;;;;3.90;1.87;;;;;;;;;;6216870;23;20365;-82
2023/05/20 08:46:01;;;;;;;4.82;1.75;;;;;;;;;;6241630;23;20843;-81
2023/05/20 08:48:29;;;;;;;4.93;1.92;;;18.60;99.90;;;;;;6241949;23;20366;-82
2023/05/20 08:50:56;;;;;;;5.75;1.90;;;;;;;;;;6243863;23;20389;-81
2023/05/20 08:53:22;;;;;;;4.68;2.00;;;;;;;;;;6243348;23;20409;-82
2023/05/20 08:55:56;;;;;;;6.05;2.10;;;;;;;;;;6244368;23;20382;-80
2023/05/20 08:58:23;;;;;;;4.90;2.20;;;;;;;;;;6220310;23;20372;-82
2023/05/20 09:00:51;;;;;;;2.92;1.77;;;18.40;99.90;;;;;;6242578;23;20376;-82
2023/05/20 09:03:19;;;;;;;3.70;1.95;;;;;;;;;;6244173;23;20370;-81
2023/05/20 09:05:45;;;;;;;3.90;2.20;;;;;;;;;;6220244;23;20839;-82
2023/05/20 09:08:11;;;;;;;3.20;1.93;;;;;;;;;;6220762;23;20376;-82
2023/05/20 09:10:38;;;;;;;4.22;2.13;;;18.90;99.90;;;;;;6245486;23;20847;-82
2023/05/20 09:13:05;;;;;;;6.07;2.40;;;;;;;;;;6218665;23;20365;-82
2023/05/20 09:15:32;;;;;;;6.35;2.35;;;;;;;;;;6219322;23;20386;-81
2023/05/20 09:18:06;;;;;;;4.87;2.20;;;18.90;99.90;;;;;;6218414;23;20742;-81
2023/05/20 09:20:33;;;;;;;6.60;2.13;;;19.40;99.90;;;;;;6244456;23;20449;-81
2023/05/20 09:23:01;;;;;;;4.85;2.10;;;18.70;99.90;;;;;;6218968;23;20366;-82
2023/05/20 09:25:31;;;;;;;31.17;4.82;;;18.60;99.90;;;;;;6244398;23;20369;-82
2023/05/20 09:27:57;;;;;;;7.32;2.40;;;;;;;;;;6219329;23;20394;-81
2023/05/20 09:30:23;;;;;;;4.27;1.90;;;19.10;99.90;;;;;;6219330;23;20370;-77
2023/05/20 09:32:56;;;;;;;4.57;2.37;;;;;;;;;;6241589;23;20757;-82
2023/05/20 09:35:22;;;;;;;9.52;3.03;;;19.70;99.90;;;;;;6192947;23;20468;-82
2023/05/20 09:37:54;;;;;;;3.67;2.20;;;19.40;99.90;;;;;;6244537;23;20417;-82
2023/05/20 09:40:25;;;;;;;5.30;2.65;;;;;;;;;;6218633;23;20688;-81
2023/05/20 09:43:04;;;;;;;4.03;2.17;;;;;;;;;;6219019;23;20366;-82
2023/05/20 09:45:30;;;;;;;3.83;2.28;;;;;;;;;;6244426;23;20374;-81
2023/05/20 09:47:57;;;;;;;7.07;2.50;;;;;;;;;;6243112;23;20851;-82
2023/05/20 09:50:24;;;;;;;4.65;2.25;;;19.60;99.90;;;;;;6213617;23;20373;-81
2023/05/20 09:52:51;;;;;;;4.60;2.47;;;;;;;;;;6241680;23;20366;-82
2023/05/20 09:55:18;;;;;;;4.07;2.17;;;19.60;99.90;;;;;;6241767;23;21214;-83
2023/05/20 09:57:45;;;;;;;5.28;2.50;;;;;;;;;;6240894;23;20496;-82
2023/05/20 10:00:12;;;;;;;4.40;2.22;;;19.60;99.90;;;;;;6244499;23;20362;-82
2023/05/20 10:02:42;;;;;;;4.82;2.40;;;19.40;99.90;;;;;;6218586;23;20759;-82
2023/05/20 10:05:18;;;;;;;4.65;2.50;;;19.50;99.90;;;;;;6243415;23;20370;-82
2023/05/20 10:07:56;;;;;;;5.07;2.37;;;19.90;99.90;;;;;;6241777;23;20393;-82
2023/05/20 10:10:43;;;;;;;3.72;2.10;;;19.60;99.90;;;;;;6216863;23;20966;-82
2023/05/20 10:13:33;;;;;;;6.43;2.50;;;20.20;99.90;;;;;;6242289;23;20944;-82
2023/05/20 10:16:28;;;;;;;6.17;2.57;;;19.30;99.90;;;;;;6244260;23;20390;-83
2023/05/20 10:19:31;;;;;;;4.63;2.20;;;19.50;99.90;;;;;;6214711;23;20417;-83
2023/05/20 10:22:10;;;;;;;4.38;2.20;;;;;;;;;;6243383;23;20499;-82
2023/05/20 10:24:39;;;;;;;5.10;2.13;;;19.30;99.90;;;;;;6219058;23;20397;-81
2023/05/20 10:27:14;;;;;;;4.35;2.00;;;19.90;99.90;;;;;;6215228;23;20405;-82
2023/05/20 10:29:49;;;;;;;4.38;2.22;;;;;;;;;;6243701;23;20377;-82
2023/05/20 10:32:24;;;;;;;5.82;1.92;;;;;;;;;;6218173;23;20366;-81
2023/05/20 10:34:51;;;;;;;4.25;2.13;;;;;;;;;;6244053;23;20394;-81
2023/05/20 10:37:27;;;;;;;16.98;3.42;;;19.50;99.90;;;;;;6215213;23;20832;-81
2023/05/20 10:40:06;;;;;;;7.05;2.35;;;19.80;99.90;;;;;;6239447;23;20389;-81
2023/05/20 10:42:32;;;;;;;19.77;2.80;;;;;;;;;;6217880;23;20436;-82
2023/05/20 10:44:58;;;;;;;5.65;2.15;;;;;;;;;;6243690;23;20381;-81
2023/05/20 10:47:24;;;;;;;4.97;2.38;;;;;;;;;;6218743;23;20358;-80
2023/05/20 10:49:50;;;;;;;5.32;2.30;;;;;;;;;;6239486;23;20374;-80
2023/05/20 10:52:16;;;;;;;4.05;2.20;;;;;;;;;;6242060;23;20692;-81
2023/05/20 10:54:47;;;;;;;3.80;2.20;;;19.70;99.90;;;;;;6218712;23;20393;-81
2023/05/20 10:57:13;;;;;;;4.18;2.28;;;19.90;99.90;;;;;;6244150;23;20362;-81
2023/05/20 10:59:40;;;;;;;5.15;2.40;;;19.90;99.90;;;;;;6244865;23;20451;-80
2023/05/20 11:02:08;;;;;;;5.63;2.35;;;19.90;99.90;;;;;;6241990;23;20366;-81
2023/05/20 11:04:38;;;;;;;6.95;2.40;;;20.30;99.90;;;;;;6242895;22;20357;-81
2023/05/20 11:07:03;;;;;;;4.78;2.40;;;19.90;99.90;;;;;;6244128;23;20358;-81
2023/05/20 11:09:30;;;;;;;6.75;2.50;;;;;;;;;;6192803;23;20363;-81
2023/05/20 11:11:57;;;;;;;3.73;2.23;;;;;;;;;;6217571;23;20400;-81
2023/05/20 11:14:23;;;;;;;4.72;2.50;;;;;;;;;;6214509;23;20962;-78
2023/05/20 11:16:55;;;;;;;4.50;2.13;;;20.10;99.90;;;;;;6216402;23;20798;-81
2023/05/20 11:19:21;;;;;;;7.07;2.38;;;;;;;;;;6242923;23;20816;-80
2023/05/20 11:21:50;;;;;;;6.68;2.50;;;;;;;;;;6216772;23;20879;-82
2023/05/20 11:24:26;;;;;;;5.05;2.60;;;;;;;;;;6215859;23;20681;-82
2023/05/20 11:26:53;;;;;;;4.18;2.40;;;20.00;99.90;;;;;;6241394;23;20870;-81
2023/05/20 11:29:20;;;;;;;3.90;2.20;;;19.60;99.90;;;;;;6240503;23;20372;-80
2023/05/20 11:31:50;;;;;;;5.43;2.30;;;19.80;99.90;;;;;;6243963;23;20445;-81
2023/05/20 11:34:20;;;;;;;5.47;2.47;;;19.70;99.90;;;;;;6216767;23;20426;-80
2023/05/20 11:36:46;;;;;;;13.27;3.38;;;20.10;99.90;;;;;;6216414;23;20412;-81
2023/05/20 11:39:15;;;;;;;6.50;2.25;;;;;;;;;;6241689;23;20362;-83
2023/05/20 11:41:46;;;;;;;5.50;2.33;;;;;;;;;;6192927;23;20416;-83
2023/05/20 11:44:12;;;;;;;4.45;2.35;;;;;;;;;;6218255;23;20362;-82
2023/05/20 11:46:43;;;;;;;3.60;2.30;;;20.00;99.90;;;;;;6216824;23;20489;-81
2023/05/20 11:49:09;;;;;;;4.37;2.00;;;;;;;;;;6242336;23;20835;-81
2023/05/20 11:51:37;;;;;;;5.85;2.38;;;;;;;;;;6241875;23;20393;-81
2023/05/20 11:54:05;;;;;;;6.82;2.50;;;20.20;99.90;;;;;;6217567;23;20370;-82
2023/05/20 11:56:38;;;;;;;5.20;2.50;;;20.50;99.90;;;;;;6243583;22;20345;-82
2023/05/20 11:59:05;;;;;;;4.68;2.67;;;20.00;99.90;;;;;;6244032;23;20366;-82
2023/05/20 12:01:42;;;;;;;8.38;3.38;;;;;;;;;;6218665;23;20448;-81
2023/05/20 12:04:14;;;;;;;6.00;2.28;;;20.60;99.90;;;;;;6243098;23;20843;-81
2023/05/20 12:06:42;;;;;;;5.78;2.28;;;20.40;99.90;;;;;;6243973;23;20362;-82
2023/05/20 12:09:09;;;;;;;5.03;2.35;;;;;;;;;;6216599;23;20397;-83
2023/05/20 12:11:43;;;;;;;5.03;2.13;;;;;;;;;;6245290;23;20858;-84
2023/05/20 12:14:09;;;;;;;4.25;2.38;;;20.80;99.90;;;;;;6243955;23;20850;-81
2023/05/20 12:16:35;;;;;;;5.65;2.40;;;21.10;99.90;;;;;;6244376;23;20370;-81
2023/05/20 12:19:02;;;;;;;6.07;2.30;;;21.20;99.90;;;;;;6243549;23;20354;-81
2023/05/20 12:21:28;;;;;;;6.30;2.53;;;20.90;99.90;;;;;;6243649;23;20370;-81
2023/05/20 12:23:57;;;;;;;6.35;2.70;;;21.30;99.90;;;;;;6214461;23;20844;-81
2023/05/20 12:26:25;;;;;;;5.40;2.60;;;20.90;99.90;;;;;;6218813;23;20365;-81
2023/05/20 12:28:54;;;;;;;4.82;2.40;;;;;;;;;;6242693;23;20369;-81
2023/05/20 12:31:20;;;;;;;3.30;1.90;;;;;;;;;;6242711;23;20395;-78
2023/05/20 12:33:46;;;;;;;3.75;2.28;;;20.60;99.90;;;;;;6241108;23;20368;-81
2023/05/20 12:36:13;;;;;;;5.95;2.70;;;20.70;99.90;;;;;;6213784;23;20456;-81
2023/05/20 12:38:39;;;;;;;6.18;2.60;;;21.30;99.90;;;;;;6240876;23;20365;-81
2023/05/20 12:41:05;;;;;;;5.22;2.60;;;;;;;;;;6216623;23;20366;-82
2023/05/20 12:43:31;;;;;;;6.40;2.65;;;;;;;;;;6216190;23;20366;-86
2023/05/20 12:45:57;;;;;;;5.30;2.53;;;21.40;99.90;;;;;;6218753;23;20373;-85
2023/05/20 12:48:28;;;;;;;6.47;2.80;;;21.50;99.90;;;;;;6194979;23;20369;-86
2023/05/20 12:50:59;;;;;;;6.15;2.90;;;;;;;;;;6191058;23;20406;-83
2023/05/20 12:53:31;;;;;;;8.70;3.08;;;20.50;99.90;;;;;;6183820;23;20449;-86
2023/05/20 12:56:04;;;;;;;5.05;2.50;;;;;;;;;;6187455;23;20387;-86
2023/05/20 12:58:30;;;;;;;6.32;2.72;;;;;;;;;;6188630;23;20372;-87
2023/05/20 13:01:02;;;;;;;5.70;2.70;;;;;;;;;;6162731;23;20363;-83
2023/05/20 13:03:28;;;;;;;4.32;2.70;;;;;;;;;;6186707;23;20406;-85
2023/05/20 13:06:00;;;;;;;6.40;2.90;;;21.20;99.90;;;;;;6161573;23;20400;-85
2023/05/20 13:08:26;;;;;;;6.00;3.13;;;;;;;;;;6186492;23;20390;-84
2023/05/20 13:10:52;;;;;;;6.90;3.10;;;21.50;99.90;;;;;;6188239;23;20395;-84
2023/05/20 13:13:20;;;;;;;7.15;3.10;;;;;;;;;;6187972;23;20979;-83
2023/05/20 13:15:49;;;;;;;5.50;3.08;;;;;;;;;;6162590;23;20453;-86
2023/05/20 13:18:18;;;;;;;5.97;2.85;;;;;;;;;;6186182;23;20364;-85
2023/05/20 13:20:44;;;;;;;5.57;3.15;;;21.50;99.90;;;;;;6160738;23;20392;-85
2023/05/20 13:23:10;;;;;;;6.85;3.20;;;21.50;99.90;;;;;;6163501;23;20427;-84
2023/05/20 13:25:36;;;;;;;6.53;3.40;;;21.30;99.90;;;;;;6162526;23;20400;-85
2023/05/20 13:28:03;;;;;;;6.57;3.28;;;20.80;99.90;;;;;;6162860;23;20367;-85
2023/05/20 13:30:32;;;;;;;6.82;3.20;;;21.30;99.90;;;;;;6179891;23;20366;-85
2023/05/20 13:32:58;;;;;;;7.13;2.92;;;21.60;99.90;;;;;;6194077;23;20428;-85
2023/05/20 13:35:25;;;;;;;7.00;3.10;;;21.00;99.90;;;;;;6218721;23;20704;-85
2023/05/20 13:37:53;;;;;;;7.72;3.50;;;20.60;99.90;;;;;;6218648;23;20889;-85
2023/05/20 13:40:19;;;;;;;9.80;3.33;;;;;;;;;;6218243;23;20440;-83
2023/05/20 13:42:48;;;;;;;10.17;3.57;;;;;;;;;;6219257;23;20366;-82
2023/05/20 13:45:15;;;;;;;6.30;3.90;;;;;;;;;;6218930;23;20770;-82
2023/05/20 13:47:41;;;;;;;6.97;3.75;;;;;;;;;;6218224;23;20369;-81
2023/05/20 13:50:07;;;;;;;6.28;3.67;;;;;;;;;;6194610;23;20366;-81
2023/05/20 13:52:34;;;;;;;6.30;3.07;;;;;;;;;;6243751;23;20368;-81
2023/05/20 13:55:03;;;;;;;6.38;3.60;;;;;;;;;;6247170;22;20382;-83
2023/05/20 13:57:32;;;;;;;6.93;3.65;;;;;;;;;;6243880;23;20361;-81
2023/05/20 14:00:03;;;;;;;6.35;3.38;;;;;;;;;;6194296;23;20365;-84
2023/05/20 14:02:30;;;;;;;8.77;3.67;;;;;;;;;;6217936;23;20436;-81
2023/05/20 14:05:01;;;;;;;7.32;3.50;;;;;;;;;;6218900;23;20451;-83
2023/05/20 14:07:27;;;;;;;7.93;3.83;;;;;;;;;;6218102;23;20381;-82
2023/05/20 14:09:59;;;;;;;6.18;3.45;;;;;;;;;;6214134;23;20802;-83
2023/05/20 14:12:25;;;;;;;8.83;3.10;;;21.70;99.90;;;;;;6216651;23;20400;-85